Time;durP1;ratioP1;P1;durP2;ratioP2;P2;SDS_P1;SDS_P2;PMS_P1;PMS_P2;Temp;Humidity;BMP_temperature;BMP_pressure;BME280_temperature;BME280_humidity;BME280_pressure;Samples;Min_cycle;Max_cycle;Signal;HPM_P1;HPM_P2
2023/03/11 00:02:10;;;;;;;23.20;11.70;;;;;;;-128.00;-1.00;-1.00;131864;1273;1005244;-82
2023/03/11 00:05:14;;;;;;;15.00;10.70;;;;;;;-128.00;-1.00;-1.00;131903;1273;1004578;-82
2023/03/11 00:08:16;;;;;;;20.40;11.90;;;;;;;-128.00;-1.00;-1.00;131905;1273;1004999;-84
2023/03/11 00:11:21;;;;;;;19.80;12.50;;;;;;;-128.00;-1.00;-1.00;131903;1273;1004761;-83
2023/03/11 00:14:23;;;;;;;20.10;12.40;;;;;;;-128.00;-1.00;-1.00;131900;1274;1005055;-82
2023/03/11 00:17:27;;;;;;;19.00;12.20;;;;;;;-128.00;-1.00;-1.00;131897;1273;1004993;-83
2023/03/11 00:20:29;;;;;;;20.10;11.90;;;;;;;-128.00;-1.00;-1.00;131879;1273;1004186;-83
2023/03/11 00:23:34;;;;;;;18.70;12.50;;;;;;;-128.00;-1.00;-1.00;131918;1273;1004324;-82
2023/03/11 00:26:37;;;;;;;;;;;;;;;-128.00;-1.00;-1.00;131915;1274;1004571;-82
2023/03/11 00:29:39;;;;;;;21.20;12.10;;;;;;;-128.00;-1.00;-1.00;131948;1273;1004292;-82
2023/03/11 00:32:41;;;;;;;21.40;12.10;;;;;;;-128.00;-1.00;-1.00;131877;1273;1004924;-82
2023/03/11 00:35:44;;;;;;;21.50;12.70;;;;;;;-128.00;-1.00;-1.00;131837;1274;1003663;-83
2023/03/11 00:38:46;;;;;;;26.10;12.50;;;;;;;-128.00;-1.00;-1.00;131875;1273;1004439;-83
2023/03/11 00:41:49;;;;;;;20.30;12.90;;;;;;;-128.00;-1.00;-1.00;131806;1273;1004854;-84
2023/03/11 00:44:52;;;;;;;26.30;13.80;;;;;;;-128.00;-1.00;-1.00;131874;1273;1005482;-82
2023/03/11 00:47:54;;;;;;;22.40;12.90;;;;;;;-128.00;-1.00;-1.00;131909;1273;1004726;-82
2023/03/11 00:50:57;;;;;;;21.60;13.20;;;;;;;-128.00;-1.00;-1.00;131863;1273;1003928;-81
2023/03/11 00:53:59;;;;;;;22.40;12.90;;;;;;;-128.00;-1.00;-1.00;131869;1273;1004765;-83
2023/03/11 00:57:02;;;;;;;20.80;12.40;;;;;;;-128.00;-1.00;-1.00;131808;1273;1003733;-82
2023/03/11 01:00:05;;;;;;;21.40;12.40;;;;;;;-128.00;-1.00;-1.00;131871;1274;1004572;-84
2023/03/11 01:03:08;;;;;;;25.10;13.60;;;;;;;-128.00;-1.00;-1.00;131952;1273;1004161;-85
2023/03/11 01:06:10;;;;;;;27.20;13.40;;;;;;;-128.00;-1.00;-1.00;131883;1273;1004004;-83
2023/03/11 01:09:14;;;;;;;25.10;14.70;;;;;;;-128.00;-1.00;-1.00;131905;1273;1003711;-84
2023/03/11 01:12:17;;;;;;;31.80;16.10;;;;;;;-128.00;-1.00;-1.00;131859;1274;1004119;-82
2023/03/11 01:15:19;;;;;;;30.00;16.80;;;;;;;-128.00;-1.00;-1.00;131893;1273;1004354;-84
2023/03/11 01:18:21;;;;;;;26.80;16.00;;;;;;;-128.00;-1.00;-1.00;131897;1273;1005329;-83
2023/03/11 01:21:24;;;;;;;30.30;17.00;;;;;;;-128.00;-1.00;-1.00;131872;1273;1005397;-83
2023/03/11 01:24:26;;;;;;;30.80;17.90;;;;;;;-128.00;-1.00;-1.00;131866;1273;1004220;-82
2023/03/11 01:27:29;;;;;;;28.50;17.10;;;;;;;-128.00;-1.00;-1.00;131874;1273;1004929;-84
2023/03/11 01:30:32;;;;;;;26.80;17.00;;;;;;;-128.00;-1.00;-1.00;131847;1273;1003721;-84
2023/03/11 01:33:34;;;;;;;32.40;18.10;;;;;;;-128.00;-1.00;-1.00;131891;1273;1004327;-83
2023/03/11 01:36:37;;;;;;;34.40;17.70;;;;;;;-128.00;-1.00;-1.00;131901;1273;1004242;-84
2023/03/11 01:39:39;;;;;;;30.50;17.80;;;;;;;-128.00;-1.00;-1.00;131863;1274;1004734;-83
2023/03/11 01:42:42;;;;;;;33.60;18.80;;;;;;;-128.00;-1.00;-1.00;131903;1273;1003901;-82
2023/03/11 01:45:44;;;;;;;32.30;18.90;;;;;;;-128.00;-1.00;-1.00;131861;1273;1004996;-84
2023/03/11 01:48:47;;;;;;;34.10;19.10;;;;;;;-128.00;-1.00;-1.00;131908;1273;1004912;-83
2023/03/11 01:51:50;;;;;;;33.70;18.80;;;;;;;-128.00;-1.00;-1.00;131941;1273;1005235;-82
2023/03/11 01:54:53;;;;;;;32.10;18.20;;;;;;;-128.00;-1.00;-1.00;131903;1273;1005630;-83
2023/03/11 01:57:55;;;;;;;33.40;18.70;;;;;;;-128.00;-1.00;-1.00;131928;1273;1004441;-84
2023/03/11 02:00:58;;;;;;;32.00;16.30;;;;;;;-128.00;-1.00;-1.00;131941;1273;1004989;-84
2023/03/11 02:04:00;;;;;;;29.00;17.00;;;;;;;-128.00;-1.00;-1.00;131889;1273;1004552;-83
2023/03/11 02:07:03;;;;;;;29.30;17.10;;;;;;;-128.00;-1.00;-1.00;131953;1273;1004839;-81
2023/03/11 02:10:06;;;;;;;27.40;16.60;;;;;;;-128.00;-1.00;-1.00;131918;1273;1004089;-84
2023/03/11 02:13:09;;;;;;;29.90;16.30;;;;;;;-128.00;-1.00;-1.00;131830;1273;1004522;-81
2023/03/11 02:16:12;;;;;;;30.10;15.00;;;;;;;-128.00;-1.00;-1.00;131854;1273;1004335;-82
2023/03/11 02:19:15;;;;;;;29.90;16.00;;;;;;;-128.00;-1.00;-1.00;131897;1273;1004138;-84
2023/03/11 02:22:17;;;;;;;26.80;14.90;;;;;;;-128.00;-1.00;-1.00;131955;1273;1004858;-82
2023/03/11 02:25:20;;;;;;;22.00;14.40;;;;;;;-128.00;-1.00;-1.00;131878;1273;1005181;-82
2023/03/11 02:28:22;;;;;;;23.90;13.70;;;;;;;-128.00;-1.00;-1.00;131940;1273;1005415;-84
2023/03/11 02:31:25;;;;;;;24.50;14.10;;;;;;;-128.00;-1.00;-1.00;131863;1273;1004672;-82
2023/03/11 02:34:27;;;;;;;21.30;13.80;;;;;;;-128.00;-1.00;-1.00;131871;1273;1004557;-84
2023/03/11 02:37:29;;;;;;;21.50;13.90;;;;;;;-128.00;-1.00;-1.00;131886;1273;1004021;-83
2023/03/11 02:40:32;;;;;;;22.60;13.90;;;;;;;-128.00;-1.00;-1.00;131863;1273;1007218;-82
2023/03/11 02:43:36;;;;;;;24.30;13.40;;;;;;;-128.00;-1.00;-1.00;131922;1273;1005196;-82
2023/03/11 02:46:38;;;;;;;19.80;12.50;;;;;;;-128.00;-1.00;-1.00;131870;1273;1004692;-82
2023/03/11 02:49:41;;;;;;;23.60;12.30;;;;;;;-128.00;-1.00;-1.00;131888;1273;1004979;-83
2023/03/11 02:52:43;;;;;;;18.20;11.80;;;;;;;-128.00;-1.00;-1.00;131870;1273;1004541;-85
2023/03/11 02:55:45;;;;;;;17.00;11.10;;;;;;;-128.00;-1.00;-1.00;131872;1273;1003414;-81
2023/03/11 02:58:48;;;;;;;17.60;9.30;;;;;;;-128.00;-1.00;-1.00;131912;1273;1004795;-83
2023/03/11 03:01:50;;;;;;;14.90;9.40;;;;;;;-128.00;-1.00;-1.00;131920;1273;1004130;-83
2023/03/11 03:04:53;;;;;;;13.30;8.30;;;;;;;-128.00;-1.00;-1.00;131861;1273;1004961;-82
2023/03/11 03:07:55;;;;;;;12.10;7.20;;;;;;;-128.00;-1.00;-1.00;131880;1273;1004204;-82
2023/03/11 03:10:58;;;;;;;10.20;6.60;;;;;;;-128.00;-1.00;-1.00;131860;1273;1004618;-83
2023/03/11 03:14:01;;;;;;;10.80;7.00;;;;;;;-128.00;-1.00;-1.00;131928;1273;1005391;-85
2023/03/11 03:17:03;;;;;;;13.60;6.80;;;;;;;-128.00;-1.00;-1.00;131894;1273;1004591;-85
2023/03/11 03:20:10;;;;;;;10.80;6.70;;;;;;;-128.00;-1.00;-1.00;131901;1273;1004614;-84
2023/03/11 03:23:12;;;;;;;9.90;8.20;;;;;;;-128.00;-1.00;-1.00;131855;1273;1004140;-83
2023/03/11 03:26:15;;;;;;;11.80;6.80;;;;;;;-128.00;-1.00;-1.00;131914;1273;1005651;-81
2023/03/11 03:29:17;;;;;;;14.70;8.00;;;;;;;-128.00;-1.00;-1.00;131870;1273;1004821;-81
2023/03/11 03:32:20;;;;;;;8.80;6.70;;;;;;;-128.00;-1.00;-1.00;131793;1273;1004560;-80
2023/03/11 03:35:22;;;;;;;10.10;6.60;;;;;;;-128.00;-1.00;-1.00;131843;1264;1006073;-83
2023/03/11 03:38:24;;;;;;;5.80;4.90;;;;;;;-128.00;-1.00;-1.00;131800;1273;1004744;-80
2023/03/11 03:41:27;;;;;;;7.00;5.40;;;;;;;-128.00;-1.00;-1.00;131801;1273;1003812;-81
2023/03/11 03:44:29;;;;;;;5.20;4.70;;;;;;;-128.00;-1.00;-1.00;131894;1273;1004955;-82
2023/03/11 03:47:32;;;;;;;4.70;4.10;;;;;;;-128.00;-1.00;-1.00;131824;1273;1005325;-80
2023/03/11 03:50:34;;;;;;;6.20;3.50;;;;;;;-128.00;-1.00;-1.00;131816;1273;1004741;-82
2023/03/11 03:53:37;;;;;;;5.00;3.60;;;;;;;-128.00;-1.00;-1.00;131996;1273;1005052;-83
2023/03/11 03:56:39;;;;;;;3.40;3.10;;;;;;;-128.00;-1.00;-1.00;132012;1273;1004145;-82
2023/03/11 03:59:41;;;;;;;3.90;3.50;;;;;;;-128.00;-1.00;-1.00;131963;1273;1004613;-83
2023/03/11 04:02:44;;;;;;;6.60;3.70;;;;;;;-128.00;-1.00;-1.00;131930;1273;1003722;-83
2023/03/11 04:05:47;;;;;;;3.30;3.00;;;;;;;-128.00;-1.00;-1.00;131945;1273;1004096;-80
2023/03/11 04:08:49;;;;;;;3.50;3.20;;;;;;;-128.00;-1.00;-1.00;132036;1273;1003401;-82
2023/03/11 04:11:51;;;;;;;5.20;2.90;;;;;;;-128.00;-1.00;-1.00;132094;1273;1004648;-81
2023/03/11 04:14:54;;;;;;;5.60;3.40;;;;;;;-128.00;-1.00;-1.00;132067;1273;1004053;-81
2023/03/11 04:17:56;;;;;;;4.20;3.50;;;;;;;-128.00;-1.00;-1.00;132163;1273;1003981;-81
2023/03/11 04:20:59;;;;;;;3.30;3.00;;;;;;;-128.00;-1.00;-1.00;132187;1273;1005223;-80
2023/03/11 04:24:01;;;;;;;3.80;3.20;;;;;;;-128.00;-1.00;-1.00;132121;1273;1004774;-82
2023/03/11 04:27:03;;;;;;;4.20;3.70;;;;;;;-128.00;-1.00;-1.00;132213;1273;1004813;-82
2023/03/11 04:30:06;;;;;;;3.80;3.50;;;;;;;-128.00;-1.00;-1.00;132101;1273;1004417;-82
2023/03/11 04:33:08;;;;;;;3.90;2.60;;;;;;;-128.00;-1.00;-1.00;131565;1273;1005037;-80
2023/03/11 04:36:11;;;;;;;4.90;2.50;;;;;;;-128.00;-1.00;-1.00;131996;1273;1004610;-82
2023/03/11 04:39:13;;;;;;;3.10;2.30;;;;;;;-128.00;-1.00;-1.00;131914;1273;1004923;-82
2023/03/11 04:42:17;;;;;;;3.40;2.60;;;;;;;-128.00;-1.00;-1.00;132025;1273;1003789;-81
2023/03/11 04:45:20;;;;;;;3.10;2.80;;;;;;;-128.00;-1.00;-1.00;132137;1273;1006681;-82
2023/03/11 04:48:23;;;;;;;3.50;3.20;;;;;;;-128.00;-1.00;-1.00;132442;1273;1004324;-82
2023/03/11 04:51:26;;;;;;;2.90;2.70;;;;;;;-128.00;-1.00;-1.00;132277;1273;1004158;-83
2023/03/11 04:54:28;;;;;;;3.20;2.70;;;;;;;-128.00;-1.00;-1.00;132243;1273;1004979;-82
2023/03/11 04:57:30;;;;;;;4.20;2.50;;;;;;;-128.00;-1.00;-1.00;132392;1273;1003486;-81
2023/03/11 05:00:33;;;;;;;2.00;1.90;;;;;;;-128.00;-1.00;-1.00;132186;1273;1003901;-83
2023/03/11 05:03:35;;;;;;;3.60;2.70;;;;;;;-128.00;-1.00;-1.00;132127;1251;1004062;-82
2023/03/11 05:06:38;;;;;;;2.80;2.40;;;;;;;-128.00;-1.00;-1.00;132143;1273;1003880;-82
2023/03/11 05:09:40;;;;;;;3.30;2.40;;;;;;;-128.00;-1.00;-1.00;132060;1251;1005046;-82
2023/03/11 05:12:43;;;;;;;2.50;2.30;;;;;;;-128.00;-1.00;-1.00;132020;1273;1005273;-82
2023/03/11 05:15:45;;;;;;;5.10;2.60;;;;;;;-128.00;-1.00;-1.00;132341;1273;1005180;-82
2023/03/11 05:18:48;;;;;;;3.70;2.60;;;;;;;-128.00;-1.00;-1.00;132530;1273;1003846;-83
2023/03/11 05:21:50;;;;;;;3.20;2.70;;;;;;;-128.00;-1.00;-1.00;132444;1273;1004136;-82
2023/03/11 05:24:53;;;;;;;5.70;3.30;;;;;;;-128.00;-1.00;-1.00;132590;1251;1005084;-80
2023/03/11 05:27:55;;;;;;;4.90;3.30;;;;;;;-128.00;-1.00;-1.00;132727;1273;1005216;-82
2023/03/11 05:30:57;;;;;;;3.60;3.20;;;;;;;-128.00;-1.00;-1.00;132422;1273;1003889;-82
2023/03/11 05:34:00;;;;;;;4.00;2.90;;;;;;;-128.00;-1.00;-1.00;132513;1273;1004548;-82
2023/03/11 05:37:02;;;;;;;9.20;3.10;;;;;;;-128.00;-1.00;-1.00;132576;1273;1004637;-79
2023/03/11 05:40:08;;;;;;;7.90;3.70;;;;;;;-128.00;-1.00;-1.00;131646;1273;1004341;-80
2023/03/11 05:43:11;;;;;;;6.70;3.60;;;;;;;-128.00;-1.00;-1.00;132046;1273;1004476;-84
2023/03/11 05:46:13;;;;;;;4.40;3.40;;;;;;;-128.00;-1.00;-1.00;132508;1273;1004066;-80
2023/03/11 05:49:15;;;;;;;7.50;3.40;;;;;;;-128.00;-1.00;-1.00;132594;1273;1003916;-81
2023/03/11 05:52:18;;;;;;;5.20;3.70;;;;;;;-128.00;-1.00;-1.00;132642;1273;1004363;-80
2023/03/11 05:55:20;;;;;;;5.60;3.60;;;;;;;-128.00;-1.00;-1.00;132672;1273;1004605;-80
2023/03/11 05:58:23;;;;;;;5.90;4.30;;;;;;;-128.00;-1.00;-1.00;132372;1273;1004369;-82
2023/03/11 06:01:25;;;;;;;4.30;4.00;;;;;;;-128.00;-1.00;-1.00;132382;1273;1005059;-82
2023/03/11 06:04:27;;;;;;;4.10;3.70;;;;;;;-128.00;-1.00;-1.00;132277;1273;1004459;-81
2023/03/11 06:07:30;;;;;;;4.50;3.70;;;;;;;-128.00;-1.00;-1.00;132500;1273;1005389;-81
2023/03/11 06:10:32;;;;;;;5.00;2.80;;;;;;;-128.00;-1.00;-1.00;132476;1273;1005321;-81
2023/03/11 06:13:35;;;;;;;3.30;2.60;;;;;;;-128.00;-1.00;-1.00;132146;1273;1005071;-82
2023/03/11 06:16:37;;;;;;;2.90;2.10;;;;;;;-128.00;-1.00;-1.00;132461;1273;1003916;-80
2023/03/11 06:19:40;;;;;;;3.10;2.40;;;;;;;-128.00;-1.00;-1.00;132503;1273;1005192;-80
2023/03/11 06:22:42;;;;;;;3.60;2.50;;;;;;;-128.00;-1.00;-1.00;131446;1273;1005280;-80
2023/03/11 06:25:45;;;;;;;4.40;3.30;;;;;;;-128.00;-1.00;-1.00;131444;1273;1004937;-80
2023/03/11 06:28:48;;;;;;;4.40;2.90;;;;;;;-128.00;-1.00;-1.00;132431;1273;1005662;-80
2023/03/11 06:31:50;;;;;;;3.90;2.80;;;;;;;-128.00;-1.00;-1.00;132347;1273;1005062;-79
2023/03/11 06:34:53;;;;;;;8.30;3.90;;;;;;;-128.00;-1.00;-1.00;132327;1273;1004519;-82
2023/03/11 06:37:55;;;;;;;2.80;2.30;;;;;;;-128.00;-1.00;-1.00;132028;1273;1004271;-83
2023/03/11 06:40:58;;;;;;;2.90;2.60;;;;;;;-128.00;-1.00;-1.00;132184;1273;1004226;-82
2023/03/11 06:44:00;;;;;;;5.10;2.50;;;;;;;-128.00;-1.00;-1.00;132168;1273;1004896;-82
2023/03/11 06:47:02;;;;;;;2.80;1.40;;;;;;;-128.00;-1.00;-1.00;132294;1273;1005245;-83
2023/03/11 06:50:07;;;;;;;1.70;1.60;;;;;;;-128.00;-1.00;-1.00;132213;1273;1004518;-84
2023/03/11 06:53:09;;;;;;;3.70;2.70;;;;;;;-128.00;-1.00;-1.00;132082;1273;1005958;-83
2023/03/11 06:56:12;;;;;;;2.20;2.00;;;;;;;-128.00;-1.00;-1.00;132129;1273;1004302;-82
2023/03/11 07:00:12;;;;;;;2.40;1.50;;;;;;;4.41;95.63;96243.82;132501;1305;544789;-80
2023/03/11 07:03:14;;;;;;;5.10;2.80;;;;;;;4.30;95.80;96251.41;136271;1289;22674;-79
2023/03/11 07:06:17;;;;;;;3.10;1.90;;;;;;;4.20;95.83;96261.27;136279;1289;22315;-81
2023/03/11 07:09:21;;;;;;;2.20;1.40;;;;;;;4.15;95.80;96272.83;135957;1289;22287;-81
2023/03/11 07:12:24;;;;;;;3.30;1.70;;;;;;;4.13;95.95;96279.90;135542;1286;126388;-81
2023/03/11 07:15:26;;;;;;;4.40;2.00;;;;;;;4.02;96.20;96290.26;136148;1286;24269;-82
2023/03/11 07:18:29;;;;;;;3.90;1.70;;;;;;;3.96;96.31;96297.34;136384;1286;22278;-81
2023/03/11 07:21:31;;;;;;;1.70;1.60;;;;;;;3.88;96.27;96307.86;136421;1286;22461;-81
2023/03/11 07:24:34;;;;;;;2.80;2.40;;;;;;;3.78;96.52;96309.42;136949;1274;22555;-81
2023/03/11 07:27:36;;;;;;;3.90;2.50;;;;;;;3.71;96.82;96313.23;137252;1274;22202;-80
2023/03/11 07:30:38;;;;;;;4.80;3.70;;;;;;;3.60;96.06;96326.14;137295;1274;22716;-81
2023/03/11 07:33:41;;;;;;;3.00;2.70;;;;;;;3.48;95.62;96328.55;137311;1260;22256;-81
2023/03/11 07:36:43;;;;;;;5.80;3.90;;;;;;;3.36;95.26;96336.79;137279;1274;22615;-81
2023/03/11 07:39:46;;;;;;;7.70;5.60;;;;;;;3.32;95.72;96338.33;137267;1274;22232;-81
2023/03/11 07:42:48;;;;;;;10.80;7.40;;;;;;;3.38;96.10;96346.41;137309;1274;22317;-80
2023/03/11 07:45:51;;;;;;;15.20;9.90;;;;;;;3.46;95.30;96344.35;136678;1274;22489;-81
2023/03/11 07:48:54;;;;;;;7.40;5.40;;;;;;;3.59;94.91;96350.39;137282;1274;22288;-82
2023/03/11 07:51:56;;;;;;;5.70;3.90;;;;;;;3.73;93.94;96353.48;137017;1274;22219;-82
2023/03/11 07:54:58;;;;;;;7.10;4.20;;;;;;;3.81;92.89;96356.38;137284;1274;22188;-82
2023/03/11 07:58:01;;;;;;;5.70;3.90;;;;;;;3.87;92.16;96355.52;137309;1263;22244;-82
2023/03/11 08:01:03;;;;;;;5.50;4.10;;;;;;;3.95;91.77;96360.15;137083;1274;22210;-82
2023/03/11 08:04:06;;;;;;;2.70;2.50;;;;;;;3.89;90.64;96355.69;137228;1274;22275;-81
2023/03/11 08:07:08;;;;;;;3.50;2.40;;;;;;;3.76;91.10;96356.73;137124;1274;22249;-81
2023/03/11 08:10:11;;;;;;;7.30;4.10;;;;;;;3.65;92.18;96360.02;137261;1270;22215;-80
2023/03/11 08:13:13;;;;;;;4.80;3.30;;;;;;;3.56;92.16;96361.91;137329;1264;22308;-80
2023/03/11 08:16:15;;;;;;;5.50;4.30;;;;;;;3.40;92.25;96359.65;137248;1275;22384;-81
2023/03/11 08:19:18;;;;;;;4.30;3.40;;;;;;;3.28;92.71;96364.45;137297;1275;22850;-81
2023/03/11 08:22:20;;;;;;;5.20;3.70;;;;;;;3.12;92.54;96371.66;137340;1275;22231;-82
2023/03/11 08:25:23;;;;;;;3.80;3.40;;;;;;;3.07;93.21;96374.75;137178;1275;22434;-82
2023/03/11 08:28:25;;;;;;;3.40;3.10;;;;;;;3.08;92.18;96381.10;137321;1267;22726;-81
2023/03/11 08:31:28;;;;;;;3.70;3.40;;;;;;;2.99;91.38;96384.19;137300;1275;22156;-82
2023/03/11 08:34:31;;;;;;;2.70;2.50;;;;;;;2.97;90.71;96392.25;137167;1275;22251;-82
2023/03/11 08:37:34;;;;;;;3.00;2.70;;;;;;;2.93;89.68;96403.58;137371;1275;23017;-76
2023/03/11 08:40:36;;;;;;;3.50;2.20;;;;;;;2.90;89.57;96410.61;137320;1275;22181;-82
2023/03/11 08:43:39;;;;;;;2.90;2.60;;;;;;;2.99;89.39;96418.71;137155;1271;22221;-81
2023/03/11 08:46:42;;;;;;;4.60;2.70;;;;;;;3.18;89.01;96416.87;137316;1275;22268;-81
2023/03/11 08:49:44;;;;;;;3.70;3.10;;;;;;;3.44;88.41;96420.01;137332;1275;22241;-81
2023/03/11 08:52:46;;;;;;;4.70;3.20;;;;;;;3.60;87.82;96423.99;137248;1275;22240;-82
2023/03/11 08:55:49;;;;;;;3.20;2.40;;;;;;;3.61;87.31;96423.83;137177;1275;22862;-82
2023/03/11 08:58:51;;;;;;;6.40;4.10;;;;;;;3.50;86.69;96430.52;137214;1275;22319;-81
2023/03/11 09:01:54;;;;;;;6.10;3.90;;;;;;;3.55;87.21;96428.46;137288;1275;22605;-81
2023/03/11 09:04:56;;;;;;;4.20;3.00;;;;;;;3.62;85.85;96430.52;137298;1275;22173;-80
2023/03/11 09:07:59;;;;;;;5.20;3.20;;;;;;;3.59;84.02;96437.75;137284;1275;22290;-80
2023/03/11 09:11:01;;;;;;;7.00;3.90;;;;;;;3.55;84.86;96435.34;137260;1275;22260;-80
2023/03/11 09:14:03;;;;;;;10.10;5.30;;;;;;;3.63;85.77;96441.19;137318;1275;22279;-80
2023/03/11 09:17:06;;;;;;;11.20;4.70;;;;;;;3.72;85.83;96442.91;137141;1275;22279;-81
2023/03/11 09:20:08;;;;;;;5.00;3.60;;;;;;;3.72;85.76;96446.19;137048;1274;22724;-81
2023/03/11 09:23:11;;;;;;;12.90;6.10;;;;;;;3.66;85.42;96454.44;137299;1275;22408;-81
2023/03/11 09:26:13;;;;;;;10.30;5.60;;;;;;;3.63;85.32;96455.30;137048;1275;22292;-80
2023/03/11 09:29:16;;;;;;;9.10;5.20;;;;;;;3.61;84.99;96459.77;137298;1275;22406;-82
2023/03/11 09:32:18;;;;;;;8.00;5.20;;;;;;;3.56;84.24;96467.84;137170;1275;22196;-81
2023/03/11 09:35:21;;;;;;;6.60;4.00;;;;;;;3.46;84.66;96466.79;137040;1275;22244;-81
2023/03/11 09:38:23;;;;;;;4.00;3.20;;;;;;;3.35;84.27;96476.71;137126;1271;22587;-80
2023/03/11 09:41:25;;;;;;;5.80;3.40;;;;;;;3.26;85.03;96477.38;137302;1275;22682;-81
2023/03/11 09:44:28;;;;;;;4.80;3.70;;;;;;;3.22;84.86;96481.33;137277;1275;22317;-80
2023/03/11 09:47:30;;;;;;;6.30;4.20;;;;;;;3.07;85.42;96480.77;137325;1274;22224;-81
2023/03/11 09:50:33;;;;;;;7.10;4.90;;;;;;;2.98;86.81;96486.23;137302;1275;22216;-81
2023/03/11 09:53:35;;;;;;;7.20;3.60;;;;;;;2.93;87.92;96487.08;137189;1275;22253;-81
2023/03/11 09:56:38;;;;;;;5.00;3.30;;;;;;;2.83;88.33;96490.30;137314;1275;22264;-81
2023/03/11 09:59:42;;;;;;;6.00;3.80;;;;;;;2.71;89.43;96494.20;137287;1275;22230;-82
2023/03/11 10:02:44;;;;;;;7.00;4.30;;;;;;;2.70;89.67;96497.11;137302;1275;22384;-81
2023/03/11 10:05:47;;;;;;;7.10;3.80;;;;;;;2.70;90.10;96498.13;137255;1275;22411;-81
2023/03/11 10:08:49;;;;;;;6.50;4.10;;;;;;;2.73;90.82;96502.78;137126;1275;22576;-83
2023/03/11 10:11:52;;;;;;;5.30;4.20;;;;;;;2.68;89.90;96510.48;137325;1275;22226;-82
2023/03/11 10:14:54;;;;;;;6.20;4.30;;;;;;;2.59;90.17;96510.93;137135;1275;22509;-80
2023/03/11 10:17:57;;;;;;;6.40;4.40;;;;;;;2.59;90.39;96512.45;137138;1275;22216;-81
2023/03/11 10:21:02;;;;;;;10.30;6.20;;;;;;;2.55;90.20;96516.23;137231;1275;22235;-81
2023/03/11 10:24:05;;;;;;;10.10;5.20;;;;;;;2.55;90.88;96517.94;137014;1275;22254;-80
2023/03/11 10:27:08;;;;;;;4.50;3.70;;;;;;;2.61;91.49;96522.61;137187;1275;22966;-80
2023/03/11 10:30:10;;;;;;;5.30;3.90;;;;;;;2.58;91.75;96526.20;137210;1275;22543;-81
2023/03/11 10:33:12;;;;;;;5.70;4.50;;;;;;;2.64;91.49;96526.27;137242;1275;22362;-81
2023/03/11 10:36:16;;;;;;;5.80;4.40;;;;;;;2.50;91.08;96530.61;137320;1275;22373;-83
2023/03/11 10:39:18;;;;;;;10.90;6.40;;;;;;;2.31;92.04;96535.98;137231;1275;22412;-82
2023/03/11 10:42:21;;;;;;;9.90;6.50;;;;;;;2.20;92.56;96537.45;137247;1275;22259;-82
2023/03/11 10:45:23;;;;;;;7.50;4.70;;;;;;;2.19;93.11;96543.77;137260;1275;22928;-82
2023/03/11 10:48:26;;;;;;;7.40;5.80;;;;;;;2.05;93.25;96542.14;137174;1275;22194;-82
2023/03/11 10:51:28;;;;;;;5.40;4.60;;;;;;;1.96;93.59;96548.74;137185;1275;22298;-81
2023/03/11 10:54:30;;;;;;;6.70;5.10;;;;;;;1.91;96.01;96558.48;137222;1275;22251;-81
2023/03/11 10:57:33;;;;;;;10.20;6.20;;;;;;;1.90;97.33;96561.39;137182;1271;22418;-81
2023/03/11 11:00:35;;;;;;;8.70;6.10;;;;;;;1.88;97.86;96567.88;137307;1275;22095;-81
2023/03/11 11:03:38;;;;;;;8.00;7.10;;;;;;;1.83;97.40;96573.49;137123;1275;22706;-81
2023/03/11 11:06:40;;;;;;;9.00;5.60;;;;;;;1.77;97.09;96577.38;137245;1271;22275;-81
2023/03/11 11:09:43;;;;;;;11.40;7.00;;;;;;;1.67;97.86;96580.16;137097;1275;22529;-81
2023/03/11 11:12:45;;;;;;;13.90;8.70;;;;;;;1.55;99.05;96585.52;137152;1275;22239;-81
2023/03/11 11:15:48;;;;;;;11.70;7.20;;;;;;;1.47;99.97;96598.11;137039;1275;22610;-82
2023/03/11 11:18:50;;;;;;;20.50;11.00;;;;;;;1.27;100.00;96612.10;136285;1274;1002324;-80
2023/03/11 11:21:55;;;;;;;7.20;4.80;;;;;;;-76.21;39.40;38646.39;135207;1275;1002721;-81
2023/03/11 11:24:58;;;;;;;5.20;3.30;;;;;;;-50.35;59.60;57974.84;134433;1275;1002317;-80
2023/03/11 11:28:00;;;;;;;4.30;3.20;;;;;;;-128.00;-1.00;-1.00;133773;1275;1002592;-81
2023/03/11 11:31:03;;;;;;;3.90;3.10;;;;;;;-128.00;-1.00;-1.00;133795;1275;1003066;-81
2023/03/11 11:34:05;;;;;;;7.10;4.50;;;;;;;-128.00;-1.00;-1.00;133502;1275;1003323;-81
2023/03/11 11:37:08;;;;;;;6.60;5.90;;;;;;;-128.00;-1.00;-1.00;133616;1275;1002289;-80
2023/03/11 11:40:11;;;;;;;4.50;4.10;;;;;;;-128.00;-1.00;-1.00;133492;1275;1002653;-82
2023/03/11 11:43:13;;;;;;;10.10;5.60;;;;;;;-128.00;-1.00;-1.00;133725;1275;1002651;-82
2023/03/11 11:46:15;;;;;;;9.60;5.70;;;;;;;-128.00;-1.00;-1.00;133834;1275;1002354;-82
2023/03/11 11:49:18;;;;;;;9.60;6.50;;;;;;;-128.00;-1.00;-1.00;133537;1275;1002493;-81
2023/03/11 11:52:20;;;;;;;8.90;6.60;;;;;;;-128.00;-1.00;-1.00;133747;1275;1002462;-81
2023/03/11 11:55:23;;;;;;;7.10;6.00;;;;;;;-128.00;-1.00;-1.00;133552;1275;1002465;-81
2023/03/11 11:58:25;;;;;;;12.20;7.30;;;;;;;-128.00;-1.00;-1.00;133794;1275;1002851;-82
2023/03/11 12:01:27;;;;;;;7.60;6.00;;;;;;;-128.00;-1.00;-1.00;133766;1275;1002967;-83
2023/03/11 12:04:30;;;;;;;9.30;6.10;;;;;;;-128.00;-1.00;-1.00;133798;1275;1002055;-81
2023/03/11 12:07:32;;;;;;;11.60;6.20;;;;;;;-128.00;-1.00;-1.00;133635;1275;1002596;-82
2023/03/11 12:10:35;;;;;;;8.10;6.90;;;;;;;-128.00;-1.00;-1.00;133830;1274;1002459;-80
2023/03/11 12:13:37;;;;;;;8.10;7.20;;;;;;;-128.00;-1.00;-1.00;133843;1275;1003052;-82
2023/03/11 12:16:40;;;;;;;9.70;7.10;;;;;;;-128.00;-1.00;-1.00;133660;1275;1002569;-83
2023/03/11 12:19:42;;;;;;;9.20;7.30;;;;;;;-128.00;-1.00;-1.00;133792;1275;1002256;-83
2023/03/11 12:22:45;;;;;;;8.50;7.40;;;;;;;-128.00;-1.00;-1.00;133777;1275;1002612;-83
2023/03/11 12:25:47;;;;;;;7.30;6.60;;;;;;;-128.00;-1.00;-1.00;133844;1275;1002186;-85
2023/03/11 12:28:50;;;;;;;6.60;5.90;;;;;;;-128.00;-1.00;-1.00;133728;1275;1002349;-84
2023/03/11 12:31:52;;;;;;;6.90;6.30;;;;;;;-128.00;-1.00;-1.00;133790;1275;1002675;-83
2023/03/11 12:34:55;;;;;;;7.00;6.40;;;;;;;-128.00;-1.00;-1.00;133706;1275;1002183;-84
2023/03/11 12:37:57;;;;;;;7.80;6.60;;;;;;;-128.00;-1.00;-1.00;133653;1274;1002450;-84
2023/03/11 12:40:59;;;;;;;9.70;7.30;;;;;;;-128.00;-1.00;-1.00;133783;1275;1002497;-84
2023/03/11 12:44:02;;;;;;;8.10;6.90;;;;;;;-128.00;-1.00;-1.00;133618;1275;1002376;-85
2023/03/11 12:47:04;;;;;;;7.50;6.10;;;;;;;-128.00;-1.00;-1.00;133499;1275;1002049;-85
2023/03/11 12:50:07;;;;;;;6.90;6.10;;;;;;;-128.00;-1.00;-1.00;133650;1275;1002738;-86
2023/03/11 12:53:10;;;;;;;9.90;5.90;;;;;;;-128.00;-1.00;-1.00;133649;1275;1002335;-82
2023/03/11 12:56:12;;;;;;;10.30;6.80;;;;;;;-128.00;-1.00;-1.00;133589;1275;1002378;-83
2023/03/11 12:59:15;;;;;;;6.90;6.10;;;;;;;-128.00;-1.00;-1.00;133609;1275;1002235;-82
2023/03/11 13:02:17;;;;;;;10.70;5.70;;;;;;;-128.00;-1.00;-1.00;133796;1275;1002413;-83
2023/03/11 13:05:20;;;;;;;7.00;6.30;;;;;;;-128.00;-1.00;-1.00;133629;1274;1002473;-84
2023/03/11 13:08:22;;;;;;;9.60;6.00;;;;;;;-128.00;-1.00;-1.00;133340;1274;1002176;-83
2023/03/11 13:11:25;;;;;;;8.80;7.20;;;;;;;-128.00;-1.00;-1.00;133386;1274;1002067;-85
2023/03/11 13:14:28;;;;;;;8.60;6.80;;;;;;;-128.00;-1.00;-1.00;133391;1274;1002297;-84
2023/03/11 13:17:31;;;;;;;10.40;7.50;;;;;;;-128.00;-1.00;-1.00;133287;1274;1002651;-86
2023/03/11 13:20:33;;;;;;;8.70;6.80;;;;;;;-128.00;-1.00;-1.00;133589;1274;1002247;-85
2023/03/11 13:23:36;;;;;;;10.70;9.10;;;;;;;-128.00;-1.00;-1.00;133482;1274;1002559;-84
2023/03/11 13:26:38;;;;;;;9.00;6.50;;;;;;;-128.00;-1.00;-1.00;133725;1274;1002859;-85
2023/03/11 13:29:41;;;;;;;10.70;8.30;;;;;;;-128.00;-1.00;-1.00;133533;1274;1002148;-85
2023/03/11 13:32:43;;;;;;;8.50;6.30;;;;;;;-128.00;-1.00;-1.00;133422;1274;1002403;-85
2023/03/11 13:35:45;;;;;;;7.90;6.20;;;;;;;-128.00;-1.00;-1.00;133769;1274;1002519;-84
2023/03/11 13:38:48;;;;;;;8.50;6.10;;;;;;;-128.00;-1.00;-1.00;133424;1275;1002336;-85
2023/03/11 13:41:50;;;;;;;7.90;6.70;;;;;;;-128.00;-1.00;-1.00;133642;1274;1002366;-84
2023/03/11 13:44:53;;;;;;;8.00;7.20;;;;;;;-128.00;-1.00;-1.00;133759;1275;1002927;-84
2023/03/11 13:47:55;;;;;;;8.90;6.60;;;;;;;-128.00;-1.00;-1.00;133713;1274;1002377;-84
2023/03/11 13:50:58;;;;;;;7.20;6.00;;;;;;;-128.00;-1.00;-1.00;133553;1275;1002228;-84
2023/03/11 13:54:00;;;;;;;6.90;5.20;;;;;;;-128.00;-1.00;-1.00;133681;1274;1002456;-83
2023/03/11 13:57:03;;;;;;;6.60;5.00;;;;;;;-128.00;-1.00;-1.00;133472;1274;1002811;-83
2023/03/11 14:00:13;;;;;;;6.60;6.00;;;;;;;-128.00;-1.00;-1.00;133331;1274;1002601;-84